Edgar B Speer — WQZ9670 — position and weather

sailwx.info

Track history (hours):
 
Tides and Currents Weather Stations Pressure Air Temp Water Temp Dewpoint Dewpoint Depression Visibility Wind Speed Wind Dir Waves Ship Positions

Edgar B Speer

Owner: Great Lakes Fleet, Inc, DULUTH, MN. More information available from US FCC via Universal Licensing System and Coast Guard Vessel Documentation Center.

Last reported at 2015-May-22 20:33 UTC. Time now 2015-May-22 20:41 UTC.
Position N 45°50' W 085°06'.

Length 306 m; draft 7.2 m.

Type: Cargo ship. MMSI: 366971330.

Date/timePositionNaut miles runAvg speedWind from/ knotsBaromVisibWave heightAir tempDewpointWater temp
2015-May-22 20:33N 45°50' W 085°06'1111.1
2015-May-22 19:33N 45°41' W 085°14'1413.9
2015-May-22 18:33N 45°29' W 085°26'1413.8
2015-May-22 17:33N 45°18' W 085°38'1413.7
2015-May-22 16:33N 45°07' W 085°49'1313.2
2015-May-22 15:33N 44°58' W 086°03'1313.0
2015-May-22 14:33N 44°49' W 086°16'1413.6
2015-May-22 13:33N 44°37' W 086°24'8 0.2
2015-May-20 17:26N 44°44' W 086°29'1112.8
2015-May-20 16:33N 44°55' W 086°25'1312.8
2015-May-20 15:33N 45°07' W 086°20'1312.9
2015-May-20 14:34N 45°19' W 086°15'1312.8
2015-May-20 13:33N 45°32' W 086°10'1212.1
2015-May-20 12:33N 45°42' W 086°02'1312.8
2015-May-20 11:33N 45°49' W 085°46'1212.2
2015-May-20 10:33N 45°54' W 085°30'1312.5
2015-May-20 09:33N 45°52' W 085°13'1312.8
2015-May-20 08:33N 45°50' W 084°54'1212.0
2015-May-20 07:33N 45°50' W 084°37'1212.1
2015-May-20 06:33N 45°53' W 084°20'1212.4
2015-May-20 05:33N 45°54' W 084°03'322 8.1
2015-May-18 13:33N 47°01' W 091°40'1 0.1
2015-May-18 03:24N 46°60' W 091°41'6 5.0
2015-May-18 02:15N 47°04' W 091°34'3 3.4
2015-May-18 01:27N 47°02' W 091°37'3 3.3
2015-May-18 00:29N 46°59' W 091°40'6 2.8
2015-May-17 22:32N 46°55' W 091°46'3 2.8
2015-May-17 21:33N 46°54' W 091°49'3 3.2
2015-May-17 20:33N 46°52' W 091°53'3 3.2
2015-May-17 19:33N 46°50' W 091°57'1 1.5
2015-May-17 18:33N 46°49' W 091°59'4 4.3
2015-May-17 17:33N 46°52' W 091°53'5 4.7
2015-May-17 16:33N 46°54' W 091°48'5 4.7
2015-May-17 15:33N 46°57' W 091°43'5 4.0
2015-May-17 14:12N 46°60' W 091°36'2 3.7
2015-May-17 13:33N 46°60' W 091°32'11 2.8
2015-May-17 09:29N 46°58' W 091°16'7 7.6
2015-May-17 08:33N 46°58' W 091°26'8 7.5
2015-May-17 07:33N 46°58' W 091°37'3 2.9
2015-May-17 06:33N 46°60' W 091°41'1 0.9
2015-May-17 05:33N 47°01' W 091°40'  
Track history (hours):
 
Tides and Currents Weather Stations Pressure Air Temp Water Temp Dewpoint Dewpoint Depression Visibility Wind Speed Wind Dir Waves Ship Positions

Edgar B Speer

Owner: Great Lakes Fleet, Inc, DULUTH, MN. More information available from US FCC via Universal Licensing System and Coast Guard Vessel Documentation Center.

Last reported at 2015-May-22 20:33 UTC. Time now 2015-May-22 20:41 UTC.
Position N 45°50' W 085°06'.

Length 306 m; draft 7.2 m.

Type: Cargo ship. MMSI: 366971330.

Date/timePositionNaut miles runAvg speedWind from/ knotsBaromVisibWave heightAir tempDewpointWater temp
2015-May-22 20:33N 45°50' W 085°06'1111.1
2015-May-22 19:33N 45°41' W 085°14'1413.9
2015-May-22 18:33N 45°29' W 085°26'1413.8
2015-May-22 17:33N 45°18' W 085°38'1413.7
2015-May-22 16:33N 45°07' W 085°49'1313.2
2015-May-22 15:33N 44°58' W 086°03'1313.0
2015-May-22 14:33N 44°49' W 086°16'1413.6
2015-May-22 13:33N 44°37' W 086°24'8 0.2
2015-May-20 17:26N 44°44' W 086°29'1112.8
2015-May-20 16:33N 44°55' W 086°25'1312.8
2015-May-20 15:33N 45°07' W 086°20'1312.9
2015-May-20 14:34N 45°19' W 086°15'1312.8
2015-May-20 13:33N 45°32' W 086°10'1212.1
2015-May-20 12:33N 45°42' W 086°02'1312.8
2015-May-20 11:33N 45°49' W 085°46'1212.2
2015-May-20 10:33N 45°54' W 085°30'1312.5
2015-May-20 09:33N 45°52' W 085°13'1312.8
2015-May-20 08:33N 45°50' W 084°54'1212.0
2015-May-20 07:33N 45°50' W 084°37'1212.1
2015-May-20 06:33N 45°53' W 084°20'1212.4
2015-May-20 05:33N 45°54' W 084°03'322 8.1
2015-May-18 13:33N 47°01' W 091°40'1 0.1
2015-May-18 03:24N 46°60' W 091°41'6 5.0
2015-May-18 02:15N 47°04' W 091°34'3 3.4
2015-May-18 01:27N 47°02' W 091°37'3 3.3
2015-May-18 00:29N 46°59' W 091°40'6 2.8
2015-May-17 22:32N 46°55' W 091°46'3 2.8
2015-May-17 21:33N 46°54' W 091°49'3 3.2
2015-May-17 20:33N 46°52' W 091°53'3 3.2
2015-May-17 19:33N 46°50' W 091°57'1 1.5
2015-May-17 18:33N 46°49' W 091°59'4 4.3
2015-May-17 17:33N 46°52' W 091°53'5 4.7
2015-May-17 16:33N 46°54' W 091°48'5 4.7
2015-May-17 15:33N 46°57' W 091°43'5 4.0
2015-May-17 14:12N 46°60' W 091°36'2 3.7
2015-May-17 13:33N 46°60' W 091°32'11 2.8
2015-May-17 09:29N 46°58' W 091°16'7 7.6
2015-May-17 08:33N 46°58' W 091°26'8 7.5
2015-May-17 07:33N 46°58' W 091°37'3 2.9
2015-May-17 06:33N 46°60' W 091°41'1 0.9
2015-May-17 05:33N 47°01' W 091°40'  

Dump ship's entire track history